Time;durP1;ratioP1;P1;durP2;ratioP2;P2;SDS_P1;SDS_P2;PMS_P1;PMS_P2;Temp;Humidity;BMP_temperature;BMP_pressure;BME280_temperature;BME280_humidity;BME280_pressure;Samples;Min_cycle;Max_cycle;Signal;HPM_P1;HPM_P2
2022/11/30 00:01:12;;;;;;;14.10;9.20;;;4.60;99.90;4.40;101123.00;;;;4987558;28;103204;-66
2022/11/30 00:03:38;;;;;;;16.70;8.93;;;4.60;99.90;4.40;101126.00;;;;4989538;28;88772;-65
2022/11/30 00:06:07;;;;;;;14.30;9.23;;;4.60;99.90;4.40;101144.00;;;;4991510;28;110382;-67
2022/11/30 00:08:33;;;;;;;14.27;8.83;;;4.70;99.90;4.30;101131.00;;;;4987445;28;87809;-66
2022/11/30 00:10:59;;;;;;;11.47;8.73;;;4.40;99.90;4.30;101137.00;;;;4988166;28;98909;-66
2022/11/30 00:13:24;;;;;;;13.97;9.60;;;4.40;99.90;4.30;101137.00;;;;4992519;27;117387;-67
2022/11/30 00:15:50;;;;;;;12.90;9.20;;;4.50;99.90;4.20;101135.00;;;;4979806;28;107933;-66
2022/11/30 00:18:16;;;;;;;16.10;10.07;;;4.40;99.90;4.20;101146.00;;;;4993270;27;106931;-66
2022/11/30 00:20:45;;;;;;;14.13;9.90;;;4.40;99.90;4.20;101146.00;;;;4994573;28;89028;-66
2022/11/30 00:23:11;;;;;;;13.50;9.10;;;4.30;99.90;4.10;101144.00;;;;4976246;28;117635;-66
2022/11/30 00:25:36;;;;;;;13.90;8.67;;;4.80;99.90;4.10;101148.00;;;;4986881;28;110468;-66
2022/11/30 00:28:02;;;;;;;11.40;7.83;;;4.30;99.90;4.10;101152.00;;;;4991110;28;87662;-66
2022/11/30 00:30:29;;;;;;;15.60;10.23;;;4.30;99.90;4.10;101143.00;;;;4988401;28;110803;-66
2022/11/30 00:32:58;;;;;;;16.13;10.97;;;4.30;99.90;4.00;101145.00;;;;4986891;28;88529;-66
2022/11/30 00:35:23;;;;;;;15.30;9.17;;;4.20;99.90;4.00;101143.00;;;;4988798;28;112278;-66
2022/11/30 00:37:49;;;;;;;15.70;9.67;;;4.20;99.90;4.00;101147.00;;;;4983808;28;110224;-66
2022/11/30 00:40:15;;;;;;;17.93;9.97;;;4.20;99.90;4.00;101149.00;;;;4992975;28;116677;-66
2022/11/30 00:42:41;;;;;;;13.93;8.87;;;4.30;99.90;4.00;101144.00;;;;4991155;28;116162;-66
2022/11/30 00:45:09;;;;;;;13.70;9.13;;;4.20;99.90;4.00;101147.00;;;;4991183;28;112393;-66
2022/11/30 00:47:35;;;;;;;15.70;9.80;;;4.20;99.90;4.00;101149.00;;;;4988987;27;101594;-66
2022/11/30 00:50:02;;;;;;;16.07;10.37;;;4.10;99.90;3.90;101149.00;;;;4994095;28;89468;-66
2022/11/30 00:52:29;;;;;;;16.13;9.30;;;4.20;99.90;3.90;101155.00;;;;4992825;28;89890;-66
2022/11/30 00:54:55;;;;;;;13.60;8.77;;;5.00;99.90;3.90;101157.00;;;;4988831;28;88131;-66
2022/11/30 00:57:21;;;;;;;16.53;11.17;;;4.10;99.90;3.90;101152.00;;;;4989143;28;111696;-66
2022/11/30 00:59:46;;;;;;;12.60;8.73;;;4.30;99.90;3.90;101160.00;;;;4988723;27;118051;-65
2022/11/30 01:02:12;;;;;;;14.63;9.23;;;4.00;99.90;3.90;101149.00;;;;4988989;28;116321;-65
2022/11/30 01:04:38;;;;;;;15.83;9.97;;;4.10;99.90;3.90;101148.00;;;;4987147;28;87970;-66
2022/11/30 01:07:04;;;;;;;16.10;9.83;;;4.10;99.90;3.90;101155.00;;;;4987566;28;108180;-65
2022/11/30 01:09:29;;;;;;;13.50;9.67;;;4.00;99.90;3.80;101153.00;;;;4986030;28;117498;-66
2022/11/30 01:11:55;;;;;;;15.23;9.07;;;4.10;99.90;3.80;101159.00;;;;4987813;28;117565;-65
2022/11/30 01:14:21;;;;;;;13.70;8.83;;;4.20;99.90;3.80;101159.00;;;;4989564;28;94447;-66
2022/11/30 01:16:46;;;;;;;17.67;9.27;;;3.50;99.90;3.80;101153.00;;;;4988381;28;106662;-65
2022/11/30 01:19:12;;;;;;;13.97;9.00;;;4.10;99.90;3.80;101151.00;;;;4990220;27;118352;-65
2022/11/30 01:21:38;;;;;;;21.83;9.90;;;4.00;99.90;3.80;101148.00;;;;4990293;27;110079;-66
2022/11/30 01:24:04;;;;;;;20.43;10.33;;;4.00;99.90;3.80;101144.00;;;;4988505;28;110754;-66
2022/11/30 01:26:29;;;;;;;13.70;10.33;;;4.00;99.90;3.80;101148.00;;;;4991756;28;95103;-66
2022/11/30 01:28:55;;;;;;;18.17;9.40;;;4.00;99.90;3.80;101147.00;;;;4992338;28;116152;-66
2022/11/30 01:31:23;;;;;;;14.60;9.40;;;4.00;99.90;3.80;101145.00;;;;4987577;27;117010;-65
2022/11/30 01:33:51;;;;;;;16.63;10.50;;;3.80;99.90;3.80;101163.00;;;;4990466;28;87608;-66
2022/11/30 01:36:25;;;;;;;13.07;8.93;;;4.00;99.90;3.80;101157.00;;;;4991389;28;87761;-65
2022/11/30 01:38:54;;;;;;;14.57;10.67;;;3.90;99.90;3.70;101153.00;;;;4981217;28;89756;-65
2022/11/30 01:41:31;;;;;;;18.33;10.47;;;4.00;99.90;3.70;101139.00;;;;4990834;27;88298;-66
2022/11/30 01:44:17;;;;;;;16.03;9.40;;;4.00;99.90;3.70;101153.00;;;;4992908;28;99563;-65
2022/11/30 01:46:54;;;;;;;17.87;9.17;;;4.00;99.90;3.70;101156.00;;;;4993368;28;89816;-65
2022/11/30 01:49:30;;;;;;;10.30;7.60;;;3.90;99.90;3.70;101154.00;;;;4977899;28;110587;-65
2022/11/30 01:52:26;;;;;;;13.53;9.93;;;3.90;99.90;3.60;101149.00;;;;4992160;28;87980;-65
2022/11/30 01:55:07;;;;;;;11.90;9.23;;;4.00;99.90;3.60;101150.00;;;;4956554;28;99821;-66
2022/11/30 01:57:49;;;;;;;14.83;10.03;;;3.90;99.90;3.60;101149.00;;;;4988039;28;87049;-65
2022/11/30 02:00:15;;;;;;;13.53;8.67;;;3.90;99.90;3.60;101148.00;;;;4994607;28;87828;-66
2022/11/30 02:02:56;;;;;;;16.73;10.40;;;3.90;99.90;3.60;101149.00;;;;4993090;28;88114;-65
2022/11/30 02:05:24;;;;;;;15.93;9.20;;;3.80;99.90;3.60;101147.00;;;;4981196;28;89131;-65
2022/11/30 02:07:50;;;;;;;17.83;9.93;;;4.70;99.90;3.60;101155.00;;;;4992434;27;88019;-66
2022/11/30 02:10:27;;;;;;;20.27;9.73;;;3.80;99.90;3.60;101152.00;;;;4990156;28;117610;-65
2022/11/30 02:13:39;;;;;;;14.97;10.03;;;4.60;99.90;3.50;101145.00;;;;4979070;28;88385;-66
2022/11/30 02:16:28;;;;;;;15.57;10.27;;;3.80;99.90;3.50;101144.00;;;;4974904;28;100089;-65
2022/11/30 02:19:13;;;;;;;13.33;8.10;;;3.70;99.90;3.50;101143.00;;;;4979491;28;92412;-65
2022/11/30 02:22:19;;;;;;;13.73;9.03;;;3.70;99.90;3.50;101144.00;;;;4989853;28;88224;-65
2022/11/30 02:24:57;;;;;;;13.57;8.77;;;3.60;99.90;3.40;101151.00;;;;4993103;28;87879;-66
2022/11/30 02:27:44;;;;;;;14.23;8.03;;;3.70;99.90;3.40;101151.00;;;;4994083;27;87921;-66
2022/11/30 02:30:15;;;;;;;12.50;8.73;;;3.70;99.90;3.40;101150.00;;;;4977335;28;102589;-66
2022/11/30 02:32:51;;;;;;;12.13;8.60;;;3.70;99.90;3.40;101153.00;;;;4989162;28;112683;-67
2022/11/30 02:35:23;;;;;;;12.17;8.00;;;3.60;99.90;3.30;101153.00;;;;4993451;28;100942;-66
2022/11/30 02:37:52;;;;;;;16.20;9.50;;;3.60;99.90;3.30;101143.00;;;;4980329;28;101168;-66
2022/11/30 02:40:19;;;;;;;18.07;10.43;;;3.50;99.90;3.30;101142.00;;;;4992880;28;87690;-67
2022/11/30 02:42:47;;;;;;;12.90;8.77;;;3.50;99.90;3.30;101153.00;;;;4993552;28;89441;-66
2022/11/30 02:45:13;;;;;;;12.77;8.47;;;3.40;99.90;3.30;101160.00;;;;4993468;28;88028;-66
2022/11/30 02:48:07;;;;;;;16.00;10.30;;;3.60;99.90;3.20;101158.00;;;;4979612;28;96298;-66
2022/11/30 02:50:44;;;;;;;17.70;9.97;;;3.50;99.90;3.20;101146.00;;;;4993304;27;87040;-65
2022/11/30 02:53:10;;;;;;;14.87;9.30;;;3.50;99.90;3.20;101151.00;;;;4986284;27;87875;-68
2022/11/30 02:55:36;;;;;;;13.47;10.00;;;3.50;99.90;3.20;101154.00;;;;4985098;27;88012;-65
2022/11/30 02:58:02;;;;;;;17.13;9.87;;;4.10;99.90;3.20;101160.00;;;;4991985;28;110642;-65
2022/11/30 03:00:28;;;;;;;15.60;9.87;;;3.40;99.90;3.20;101153.00;;;;4986668;28;109090;-65
2022/11/30 03:02:54;;;;;;;12.27;10.33;;;3.50;99.90;3.20;101157.00;;;;4977350;28;105082;-67
2022/11/30 03:05:19;;;;;;;14.57;8.87;;;3.40;99.90;3.20;101155.00;;;;4990981;28;88373;-66
2022/11/30 03:07:45;;;;;;;15.00;9.33;;;3.40;99.90;3.10;101165.00;;;;4991336;27;111986;-65
2022/11/30 03:10:11;;;;;;;18.43;10.40;;;4.30;99.90;3.10;101169.00;;;;4989746;27;108811;-66
2022/11/30 03:12:37;;;;;;;16.33;9.63;;;3.30;99.90;3.10;101157.00;;;;4991753;28;116877;-65
2022/11/30 03:15:04;;;;;;;15.30;9.70;;;3.70;99.90;3.10;101179.00;;;;4993959;28;117201;-65
2022/11/30 03:17:30;;;;;;;15.00;9.53;;;3.40;99.90;3.00;101179.00;;;;4993531;28;87870;-65
2022/11/30 03:19:55;;;;;;;15.50;8.93;;;3.30;99.90;3.00;101173.00;;;;4993889;28;108001;-65
2022/11/30 03:22:21;;;;;;;12.37;9.80;;;3.30;99.90;3.00;101174.00;;;;4991465;28;118894;-65
2022/11/30 03:24:47;;;;;;;14.27;8.57;;;3.20;99.90;3.00;101181.00;;;;4991691;28;101751;-65
2022/11/30 03:27:12;;;;;;;18.87;8.70;;;3.20;99.90;2.90;101183.00;;;;4990620;28;110476;-65
2022/11/30 03:29:38;;;;;;;13.33;9.80;;;3.10;99.90;2.90;101183.00;;;;4978072;28;87791;-66
2022/11/30 03:32:04;;;;;;;11.77;8.70;;;3.30;99.90;2.80;101184.00;;;;4985926;28;87925;-66
2022/11/30 03:34:30;;;;;;;12.53;7.07;;;3.10;99.90;2.80;101189.00;;;;4979237;28;96818;-66
2022/11/30 03:36:56;;;;;;;14.07;9.03;;;3.10;99.90;2.80;101200.00;;;;4972594;28;111172;-65
2022/11/30 03:39:23;;;;;;;11.87;8.70;;;3.00;99.90;2.70;101201.00;;;;4975989;28;87152;-66
2022/11/30 03:41:49;;;;;;;13.70;8.37;;;3.60;99.90;2.70;101203.00;;;;4992854;28;89000;-66
2022/11/30 03:44:15;;;;;;;10.40;7.47;;;2.90;99.90;2.60;101203.00;;;;4979593;28;101493;-66
2022/11/30 03:46:40;;;;;;;15.13;8.20;;;2.90;99.90;2.60;101202.00;;;;4987275;28;88688;-67
2022/11/30 03:49:06;;;;;;;9.50;7.03;;;2.80;99.90;2.50;101199.00;;;;4988424;28;87770;-66
2022/11/30 03:51:32;;;;;;;10.23;8.13;;;2.90;99.90;2.50;101200.00;;;;4989613;28;115783;-66
2022/11/30 03:53:57;;;;;;;15.47;9.10;;;2.80;99.90;2.40;101202.00;;;;4990526;28;115846;-66
2022/11/30 03:56:23;;;;;;;12.90;9.77;;;2.70;99.90;2.40;101203.00;;;;4990078;28;110575;-66
2022/11/30 03:58:50;;;;;;;10.13;7.80;;;2.60;99.90;2.30;101198.00;;;;4990754;28;110380;-65
2022/11/30 04:01:21;;;;;;;10.57;6.70;;;2.50;99.90;2.20;101202.00;;;;4990496;28;101558;-65
2022/11/30 04:03:47;;;;;;;14.20;8.53;;;2.50;99.90;2.10;101206.00;;;;4989693;27;88687;-66
2022/11/30 04:06:13;;;;;;;17.50;9.47;;;2.50;99.90;2.10;101204.00;;;;4988480;28;87850;-66
2022/11/30 04:08:40;;;;;;;11.97;9.90;;;2.30;99.90;2.00;101202.00;;;;4988840;28;108047;-66
2022/11/30 04:11:07;;;;;;;10.77;8.60;;;2.30;99.90;1.90;101196.00;;;;4974801;28;89086;-66
2022/11/30 04:13:35;;;;;;;14.20;8.00;;;2.20;99.90;1.90;101203.00;;;;4992611;27;99085;-66
2022/11/30 04:16:01;;;;;;;10.73;8.37;;;2.20;99.90;1.90;101193.00;;;;4987607;27;104930;-66
2022/11/30 04:18:29;;;;;;;8.70;7.33;;;2.10;99.90;1.80;101196.00;;;;4986716;28;89833;-66
2022/11/30 04:20:56;;;;;;;13.17;8.87;;;2.00;99.90;1.70;101196.00;;;;4988418;28;109169;-66
2022/11/30 04:23:24;;;;;;;13.87;8.23;;;2.00;99.90;1.70;101202.00;;;;4975994;28;88232;-66
2022/11/30 04:25:50;;;;;;;18.63;10.17;;;2.00;99.90;1.60;101206.00;;;;4981792;28;88018;-66
2022/11/30 04:28:17;;;;;;;15.53;8.60;;;2.00;99.90;1.60;101195.00;;;;4984875;27;87112;-66
2022/11/30 04:30:44;;;;;;;15.50;9.33;;;2.20;99.90;1.50;101191.00;;;;4990953;27;108314;-66
2022/11/30 04:33:12;;;;;;;12.60;8.97;;;1.80;99.90;1.50;101186.00;;;;4991322;28;88964;-66
2022/11/30 04:35:41;;;;;;;18.33;9.30;;;1.70;99.90;1.50;101197.00;;;;4990126;28;88741;-66
2022/11/30 04:38:07;;;;;;;13.13;7.77;;;1.80;99.90;1.40;101197.00;;;;4978351;28;87723;-66
2022/11/30 04:40:32;;;;;;;15.23;9.13;;;1.70;99.90;1.40;101197.00;;;;4987597;28;88930;-66
2022/11/30 04:42:58;;;;;;;11.33;7.27;;;1.70;99.90;1.30;101191.00;;;;4991559;28;116726;-66
2022/11/30 04:45:24;;;;;;;12.20;7.83;;;1.70;99.90;1.30;101197.00;;;;4990973;28;91230;-66
2022/11/30 04:47:49;;;;;;;11.70;8.30;;;1.70;99.90;1.30;101193.00;;;;4989211;28;87773;-66
2022/11/30 04:50:15;;;;;;;13.17;8.97;;;1.70;99.90;1.30;101202.00;;;;4988914;28;118098;-67
2022/11/30 04:52:41;;;;;;;11.43;7.23;;;1.60;99.90;1.30;101204.00;;;;4986484;27;99459;-66
2022/11/30 04:55:07;;;;;;;22.93;12.67;;;1.50;99.90;1.20;101217.00;;;;4984760;28;110039;-66
2022/11/30 04:57:32;;;;;;;15.47;10.03;;;1.60;99.90;1.20;101213.00;;;;4990392;27;99290;-66
2022/11/30 04:59:58;;;;;;;15.90;9.90;;;1.50;99.90;1.20;101204.00;;;;4987085;28;118724;-66
2022/11/30 05:02:23;;;;;;;12.37;9.97;;;1.50;99.90;1.20;101207.00;;;;4989050;28;116534;-66
2022/11/30 05:04:49;;;;;;;14.77;7.27;;;1.40;99.90;1.20;101207.00;;;;4992034;27;109717;-66
2022/11/30 05:07:15;;;;;;;16.60;10.63;;;1.50;99.90;1.10;101209.00;;;;4988922;27;108055;-67
2022/11/30 05:09:40;;;;;;;18.03;8.83;;;1.50;99.90;1.10;101221.00;;;;4989964;27;115011;-66
2022/11/30 05:12:06;;;;;;;18.13;10.43;;;1.40;99.90;1.10;101212.00;;;;4989309;28;116582;-66
2022/11/30 05:14:32;;;;;;;19.80;12.07;;;1.40;99.90;1.10;101207.00;;;;4990658;27;110574;-66
2022/11/30 05:16:58;;;;;;;13.73;9.50;;;1.40;99.90;1.10;101212.00;;;;4993627;27;87275;-67
2022/11/30 05:19:23;;;;;;;22.27;12.17;;;1.40;99.90;1.00;101215.00;;;;4989703;27;119323;-66
2022/11/30 05:21:49;;;;;;;17.87;9.73;;;1.40;99.90;1.00;101222.00;;;;4992298;27;118932;-66
2022/11/30 05:24:15;;;;;;;17.30;10.03;;;1.30;99.90;1.00;101226.00;;;;4989818;27;107458;-67
2022/11/30 05:26:41;;;;;;;15.63;11.97;;;1.40;99.90;1.00;101230.00;;;;4989999;27;99219;-66
2022/11/30 05:29:06;;;;;;;21.50;11.50;;;1.40;99.90;1.00;101217.00;;;;4976729;27;118020;-66
2022/11/30 05:31:32;;;;;;;15.03;9.73;;;1.30;99.90;1.00;101229.00;;;;4977319;28;91564;-66
2022/11/30 05:33:58;;;;;;;17.80;10.00;;;1.30;99.90;1.00;101229.00;;;;4973641;28;87900;-66
2022/11/30 05:36:24;;;;;;;20.97;12.60;;;1.30;99.90;1.00;101243.00;;;;4972939;28;98964;-66
2022/11/30 05:38:50;;;;;;;18.23;10.37;;;1.30;99.90;0.90;101237.00;;;;4982499;27;116334;-66
2022/11/30 05:41:16;;;;;;;17.53;11.20;;;1.30;99.90;0.90;101238.00;;;;4971034;28;99888;-66
2022/11/30 05:43:41;;;;;;;17.13;9.83;;;1.30;99.90;0.90;101233.00;;;;4971799;28;113491;-66
2022/11/30 05:46:09;;;;;;;22.43;12.23;;;1.20;99.90;0.90;101235.00;;;;4978352;27;109578;-66
2022/11/30 05:48:35;;;;;;;26.43;13.60;;;1.20;99.90;0.90;101248.00;;;;4982381;27;89635;-67
2022/11/30 05:51:16;;;;;;;19.97;11.53;;;1.20;99.90;0.80;101247.00;;;;4957314;28;88172;-67
2022/11/30 05:53:44;;;;;;;23.73;12.77;;;1.20;99.90;0.90;101246.00;;;;4962138;27;87996;-66
2022/11/30 05:56:17;;;;;;;19.40;10.70;;;1.20;99.90;0.80;101250.00;;;;4992180;27;87857;-66
2022/11/30 05:58:43;;;;;;;20.07;11.70;;;1.20;99.90;0.80;101254.00;;;;4991537;27;88361;-66
2022/11/30 06:01:27;;;;;;;12.90;8.53;;;1.20;99.90;0.80;101246.00;;;;4992050;27;88569;-66
2022/11/30 06:03:54;;;;;;;14.87;8.67;;;1.20;99.90;0.90;101250.00;;;;4976506;27;87856;-66
2022/11/30 06:06:21;;;;;;;17.20;10.23;;;1.10;99.90;0.80;101247.00;;;;4991510;27;101030;-67
2022/11/30 06:08:48;;;;;;;22.40;11.40;;;1.20;99.90;0.80;101259.00;;;;4976689;28;108935;-66
2022/11/30 06:11:15;;;;;;;17.30;11.20;;;1.20;99.90;0.80;101259.00;;;;4991470;27;89233;-67
2022/11/30 06:13:41;;;;;;;18.13;9.83;;;1.20;99.90;0.80;101257.00;;;;4994207;27;88897;-67
2022/11/30 06:16:07;;;;;;;17.57;10.77;;;1.10;99.90;0.80;101267.00;;;;4995420;27;87870;-67
2022/11/30 06:18:33;;;;;;;17.97;10.97;;;1.20;99.90;0.80;101264.00;;;;4990541;27;93873;-66
2022/11/30 06:21:01;;;;;;;17.73;10.97;;;1.10;99.90;0.80;101268.00;;;;4990208;27;108750;-67
2022/11/30 06:23:28;;;;;;;18.80;10.87;;;1.20;99.90;0.80;101260.00;;;;4992903;27;87952;-66
2022/11/30 06:25:53;;;;;;;20.13;10.47;;;1.20;99.90;0.80;101268.00;;;;4992839;27;87838;-66
2022/11/30 06:28:19;;;;;;;14.07;8.93;;;1.10;99.90;0.80;101273.00;;;;4987393;27;118935;-67
2022/11/30 06:30:44;;;;;;;11.30;7.80;;;1.10;99.90;0.80;101265.00;;;;4984764;27;118585;-66
2022/11/30 06:33:10;;;;;;;11.37;8.40;;;1.10;99.90;0.80;101274.00;;;;4988699;27;109862;-67
2022/11/30 06:35:36;;;;;;;17.47;10.43;;;1.10;99.90;0.80;101272.00;;;;4995305;27;108780;-67
2022/11/30 06:38:02;;;;;;;16.97;9.93;;;1.10;99.90;0.80;101263.00;;;;4989301;27;118367;-66
2022/11/30 06:40:27;;;;;;;11.13;7.73;;;1.10;99.90;0.80;101270.00;;;;4987783;27;117743;-66
2022/11/30 06:42:53;;;;;;;10.10;7.57;;;1.10;99.90;0.80;101271.00;;;;4990977;28;87943;-67
2022/11/30 06:45:19;;;;;;;14.07;8.60;;;1.10;99.90;0.80;101273.00;;;;4981007;27;88367;-66
2022/11/30 06:47:45;;;;;;;21.70;10.23;;;1.00;99.90;0.70;101278.00;;;;4991601;28;118951;-67
2022/11/30 06:50:13;;;;;;;15.93;9.77;;;1.10;99.90;0.70;101270.00;;;;4994074;28;89194;-65
2022/11/30 06:52:38;;;;;;;18.93;9.00;;;1.10;99.90;0.70;101280.00;;;;4992705;28;87932;-66
2022/11/30 06:55:05;;;;;;;13.10;8.90;;;1.00;99.90;0.70;101279.00;;;;4996271;27;108746;-66
2022/11/30 06:57:30;;;;;;;10.83;8.40;;;1.00;99.90;0.60;101279.00;;;;4990705;27;107634;-66
2022/11/30 06:59:56;;;;;;;19.37;10.87;;;1.00;99.90;0.60;101287.00;;;;4988492;27;117703;-66
2022/11/30 07:02:22;;;;;;;14.77;9.63;;;0.90;99.90;0.60;101293.00;;;;4993334;27;88918;-67
2022/11/30 07:04:48;;;;;;;17.97;10.23;;;0.90;99.90;0.60;101296.00;;;;4990109;28;100144;-68
2022/11/30 07:07:14;;;;;;;19.17;11.00;;;1.00;99.90;0.60;101293.00;;;;4985567;28;116864;-66
2022/11/30 07:09:40;;;;;;;14.67;9.97;;;0.90;99.90;0.60;101292.00;;;;4993573;27;89017;-66
2022/11/30 07:12:07;;;;;;;13.30;9.87;;;0.90;99.90;0.60;101295.00;;;;4993276;27;112451;-65
2022/11/30 07:14:32;;;;;;;19.37;10.60;;;1.00;99.90;0.60;101296.00;;;;4991129;27;87982;-66
2022/11/30 07:16:58;;;;;;;18.57;9.30;;;1.00;99.90;0.70;101298.00;;;;4989383;28;116806;-66
2022/11/30 07:19:24;;;;;;;20.67;11.67;;;1.00;99.90;0.70;101295.00;;;;4994314;28;117853;-66
2022/11/30 07:21:49;;;;;;;14.07;9.70;;;1.00;99.90;0.90;101297.00;;;;4998518;27;108459;-65
2022/11/30 07:27:01;;;;;;;12.47;8.43;;;2.20;99.90;1.30;101316.00;;;;4989511;28;88748;-67
2022/11/30 07:29:27;;;;;;;19.20;8.97;;;1.60;99.90;1.40;101308.00;;;;4973784;27;89134;-66
2022/11/30 07:31:53;;;;;;;14.83;8.23;;;1.60;99.90;1.60;101319.00;;;;4991935;27;110766;-66
2022/11/30 07:34:19;;;;;;;13.60;8.03;;;1.80;99.90;1.80;101318.00;;;;4995380;28;102249;-66
2022/11/30 07:36:45;;;;;;;15.00;9.40;;;2.00;99.90;2.00;101324.00;;;;4993913;27;88564;-67
2022/11/30 07:39:12;;;;;;;16.83;8.63;;;2.20;99.90;2.10;101322.00;;;;4986985;27;107598;-66
2022/11/30 07:41:38;;;;;;;19.17;10.03;;;2.30;99.90;2.30;101329.00;;;;4990042;28;104538;-66
2022/11/30 07:44:06;;;;;;;18.50;8.30;;;3.10;99.90;2.50;101330.00;;;;4989379;27;101386;-66
2022/11/30 07:46:34;;;;;;;14.43;8.63;;;3.30;99.90;2.70;101334.00;;;;4996804;27;88732;-66
2022/11/30 07:49:09;;;;;;;15.87;8.63;;;2.90;99.90;2.90;101337.00;;;;4991911;28;88539;-67
2022/11/30 07:51:36;;;;;;;15.93;7.60;;;3.00;99.90;3.10;101339.00;;;;4987639;28;111527;-66
2022/11/30 07:54:02;;;;;;;15.40;6.97;;;3.30;99.90;3.20;101341.00;;;;4994202;27;87784;-67
2022/11/30 07:56:28;;;;;;;9.77;7.40;;;3.40;99.90;3.40;101335.00;;;;4991558;27;90557;-67
2022/11/30 07:58:57;;;;;;;9.80;7.40;;;3.60;99.90;3.60;101330.00;;;;4988151;28;88877;-68
2022/11/30 08:01:27;;;;;;;10.60;7.50;;;3.70;99.90;3.80;101340.00;;;;4975784;28;87858;-68
2022/11/30 08:03:53;;;;;;;10.13;6.63;;;4.00;99.90;4.00;101341.00;;;;4982343;28;87987;-66
2022/11/30 08:06:22;;;;;;;14.80;8.30;;;4.10;99.90;4.30;101332.00;;;;4989998;27;88959;-67
2022/11/30 08:08:50;;;;;;;12.37;7.83;;;4.20;99.90;4.40;101330.00;;;;4990160;28;87771;-66
2022/11/30 08:11:29;;;;;;;15.57;7.80;;;4.50;99.90;4.60;101336.00;;;;4978170;28;94555;-66
2022/11/30 08:13:55;;;;;;;8.87;7.13;;;4.60;99.90;4.80;101330.00;;;;4983628;28;87722;-66
2022/11/30 08:16:24;;;;;;;11.77;7.87;;;4.80;99.90;4.90;101343.00;;;;4985834;28;89082;-65
2022/11/30 08:18:51;;;;;;;16.73;8.97;;;5.70;99.90;5.10;101338.00;;;;4990179;27;89607;-66
2022/11/30 08:21:19;;;;;;;11.13;8.17;;;5.10;99.90;5.20;101347.00;;;;4996491;27;87840;-67
2022/11/30 08:23:48;;;;;;;13.20;8.43;;;5.40;99.90;5.30;101333.00;;;;4977415;28;88412;-67
2022/11/30 08:26:18;;;;;;;11.50;7.97;;;5.40;99.90;5.40;101342.00;;;;4992742;28;89218;-67
2022/11/30 08:28:46;;;;;;;13.63;7.97;;;5.50;99.90;5.60;101338.00;;;;4994111;27;108244;-67
2022/11/30 08:31:19;;;;;;;11.70;6.53;;;5.60;99.90;5.80;101343.00;;;;4998178;27;87671;-67
2022/11/30 08:33:45;;;;;;;12.40;7.87;;;5.90;99.90;6.00;101356.00;;;;4995461;27;100416;-68
2022/11/30 08:36:16;;;;;;;12.47;8.20;;;6.80;99.90;6.20;101343.00;;;;4975904;28;87895;-66
2022/11/30 08:38:44;;;;;;;12.97;8.47;;;6.60;99.90;6.40;101345.00;;;;4988301;28;111255;-66
2022/11/30 08:41:13;;;;;;;15.57;7.73;;;6.30;99.90;6.50;101339.00;;;;4993502;27;88526;-65
2022/11/30 08:43:39;;;;;;;14.27;7.67;;;7.30;99.90;6.70;101347.00;;;;4994157;27;87788;-66
2022/11/30 08:46:08;;;;;;;9.70;6.40;;;7.30;99.90;6.90;101356.00;;;;4992969;27;116366;-66
2022/11/30 08:48:34;;;;;;;11.43;7.27;;;6.90;99.90;7.00;101357.00;;;;4973463;28;93160;-66
2022/11/30 08:51:05;;;;;;;12.40;7.17;;;7.00;99.90;7.20;101365.00;;;;4988291;27;108703;-66
2022/11/30 08:53:32;;;;;;;18.80;8.67;;;7.90;99.90;7.40;101352.00;;;;4975625;27;87831;-65
2022/11/30 08:56:07;;;;;;;13.70;7.47;;;7.40;99.90;7.60;101356.00;;;;4989484;27;88804;-65
2022/11/30 08:58:36;;;;;;;9.93;7.20;;;7.50;99.90;7.70;101371.00;;;;4989368;27;89131;-66
2022/11/30 09:01:09;;;;;;;12.97;7.43;;;8.10;99.90;7.70;101369.00;;;;4985176;27;102959;-67
2022/11/30 09:03:36;;;;;;;15.63;7.03;;;7.70;99.90;7.90;101367.00;;;;4990139;27;88233;-66
2022/11/30 09:06:12;;;;;;;12.37;7.63;;;7.90;99.90;8.00;101376.00;;;;4995944;27;88603;-66
2022/11/30 09:08:38;;;;;;;9.47;6.27;;;8.00;99.90;8.20;101380.00;;;;4988566;27;89626;-66
2022/11/30 09:11:18;;;;;;;9.20;6.83;;;8.20;99.90;8.40;101378.00;;;;4989335;27;87921;-65
2022/11/30 09:13:44;;;;;;;13.20;6.17;;;8.40;99.90;8.60;101377.00;;;;4989650;28;87810;-66
2022/11/30 09:16:13;;;;;;;9.07;6.30;;;8.50;99.90;8.60;101387.00;;;;4987915;28;110323;-66
2022/11/30 09:18:40;;;;;;;8.80;5.73;;;8.60;99.90;8.80;101381.00;;;;4991820;27;88134;-66
2022/11/30 09:21:10;;;;;;;11.70;5.77;;;8.80;99.90;9.00;101395.00;;;;4975611;28;87903;-66
2022/11/30 09:23:36;;;;;;;15.20;6.77;;;8.90;99.90;9.10;101382.00;;;;4991524;27;100444;-65
2022/11/30 09:26:05;;;;;;;9.43;5.53;;;9.00;99.90;9.30;101385.00;;;;4987152;27;87751;-65
2022/11/30 09:28:32;;;;;;;9.20;5.73;;;9.20;99.60;9.30;101388.00;;;;4973946;28;95860;-67
2022/11/30 09:31:13;;;;;;;9.70;6.23;;;9.30;97.80;9.40;101383.00;;;;4994241;27;88933;-66
2022/11/30 09:33:39;;;;;;;10.97;6.63;;;9.30;96.90;9.30;101381.00;;;;4975512;27;91778;-65
2022/11/30 09:36:08;;;;;;;12.97;6.93;;;9.30;96.10;9.30;101378.00;;;;4990206;27;98666;-66
2022/11/30 09:38:35;;;;;;;16.50;5.93;;;9.30;95.70;9.20;101380.00;;;;4992876;28;109492;-66
2022/11/30 09:41:27;;;;;;;8.87;6.47;;;9.20;93.80;9.20;101380.00;;;;4995289;27;87711;-65
2022/11/30 09:44:24;;;;;;;9.20;6.50;;;9.20;94.10;9.20;101378.00;;;;4983090;28;88076;-66
2022/11/30 09:47:34;;;;;;;8.57;5.73;;;9.20;93.60;9.20;101385.00;;;;4975412;28;105076;-67
2022/11/30 09:50:20;;;;;;;11.93;6.40;;;9.20;93.00;9.20;101398.00;;;;4983597;28;87857;-65
2022/11/30 09:52:54;;;;;;;9.40;6.40;;;9.20;92.50;9.20;101385.00;;;;4991333;27;98687;-65
2022/11/30 09:55:29;;;;;;;9.47;6.23;;;9.20;92.40;9.30;101376.00;;;;4972924;28;88212;-66
2022/11/30 09:58:01;;;;;;;11.50;6.43;;;9.30;92.60;9.40;101385.00;;;;4973723;28;112085;-65
2022/11/30 10:00:27;;;;;;;9.33;5.87;;;9.40;92.00;9.60;101382.00;;;;4976469;28;89418;-66
2022/11/30 10:02:58;;;;;;;11.17;7.03;;;9.40;92.90;9.80;101383.00;;;;4992753;28;110414;-67
2022/11/30 10:05:58;;;;;;;7.40;5.07;;;9.60;92.70;10.10;101387.00;;;;4978185;28;87839;-67
2022/11/30 10:08:48;;;;;;;10.87;5.73;;;9.90;91.90;10.10;101378.00;;;;4988739;27;87643;-67
2022/11/30 10:11:40;;;;;;;10.30;6.30;;;10.00;91.20;10.00;101383.00;;;;4981041;28;111479;-67
2022/11/30 10:14:23;;;;;;;10.33;6.43;;;10.00;90.00;10.00;101384.00;;;;4968813;28;87944;-68
2022/11/30 10:17:25;;;;;;;9.57;6.13;;;9.90;90.30;10.10;101389.00;;;;4994260;28;89040;-68
2022/11/30 10:20:47;;;;;;;7.80;4.77;;;10.00;89.20;10.40;101380.00;;;;4986807;27;87891;-66
2022/11/30 10:23:35;;;;;;;8.90;5.63;;;10.20;90.60;10.60;101389.00;;;;4972794;27;88109;-66
2022/11/30 10:26:16;;;;;;;10.10;5.97;;;10.40;87.50;10.60;101391.00;;;;4989913;27;88761;-66
2022/11/30 10:29:02;;;;;;;13.00;6.37;;;10.50;86.00;10.50;101393.00;;;;4981871;28;87956;-67
2022/11/30 10:31:34;;;;;;;9.03;6.00;;;10.50;86.30;10.60;101390.00;;;;4977804;28;111143;-67
2022/11/30 10:34:22;;;;;;;5.93;4.83;;;10.50;85.20;10.60;101381.00;;;;4993537;27;87930;-68
2022/11/30 10:37:11;;;;;;;10.63;6.70;;;10.50;85.10;10.60;101375.00;;;;4990373;28;87565;-67
2022/11/30 10:40:09;;;;;;;12.00;6.70;;;10.60;83.70;10.70;101374.00;;;;4995574;27;87809;-68
2022/11/30 10:43:29;;;;;;;9.47;5.97;;;10.60;84.50;10.60;101376.00;;;;4983395;27;110018;-67
2022/11/30 10:45:55;;;;;;;8.30;5.50;;;10.60;82.10;10.60;101381.00;;;;4946817;28;89316;-68
2022/11/30 10:48:34;;;;;;;8.43;6.17;;;10.50;82.80;10.60;101380.00;;;;4993565;28;87760;-67
2022/11/30 10:51:01;;;;;;;12.07;6.33;;;10.60;82.10;10.50;101369.00;;;;4987839;27;100607;-67
2022/11/30 10:53:27;;;;;;;8.90;5.33;;;10.50;81.40;10.60;101378.00;;;;4979963;27;89081;-67
2022/11/30 10:56:10;;;;;;;12.10;6.93;;;10.50;82.70;10.60;101376.00;;;;4994565;27;88654;-67
2022/11/30 10:59:11;;;;;;;9.97;6.27;;;10.50;82.00;10.70;101365.00;;;;4980944;27;88115;-68
2022/11/30 11:01:40;;;;;;;7.90;5.70;;;10.50;81.50;10.60;101376.00;;;;4991113;27;87668;-66
2022/11/30 11:04:14;;;;;;;11.17;6.07;;;10.60;80.00;10.60;101382.00;;;;4993212;27;100782;-66
2022/11/30 11:06:45;;;;;;;13.27;7.30;;;10.50;80.70;10.50;101365.00;;;;4990131;27;87987;-67